createdAt,value
2023-03-25T15:57:09.699Z,0.60
2023-03-25T15:59:46.150Z,0.35
2023-03-25T16:02:33.313Z,0.52
2023-03-25T16:05:01.507Z,0.30
2023-03-25T16:07:31.080Z,0.30
2023-03-25T16:10:13.361Z,0.60
2023-03-25T16:12:43.563Z,0.43
2023-03-25T16:15:15.398Z,1.00
2023-03-25T16:17:43.833Z,0.90
2023-03-25T16:20:18.557Z,1.02
2023-03-25T16:22:49.932Z,0.73
2023-03-25T16:25:20.323Z,0.80
2023-03-25T16:27:52.933Z,0.70
2023-03-25T16:30:42.026Z,0.85
2023-03-25T16:33:12.900Z,0.57
2023-03-25T16:35:44.061Z,0.68
2023-03-25T16:38:17.644Z,0.60
2023-03-25T16:40:49.842Z,0.55
2023-03-25T16:43:20.386Z,1.98
2023-03-25T16:45:50.196Z,1.80
2023-03-25T16:48:31.862Z,0.60
2023-03-25T16:51:28.695Z,0.68
2023-03-25T16:53:59.614Z,0.47
2023-03-25T16:56:31.512Z,1.40
2023-03-25T16:59:05.142Z,0.60
2023-03-25T17:01:38.826Z,0.50
2023-03-25T17:04:22.807Z,0.73
2023-03-25T17:06:53.417Z,0.43
2023-03-25T17:09:24.179Z,0.70
2023-03-25T17:11:57.559Z,0.50
2023-03-25T17:14:29.932Z,0.63
2023-03-25T17:16:58.073Z,0.88
2023-03-25T17:19:27.368Z,1.15
2023-03-25T17:22:18.594Z,0.95
2023-03-25T17:24:55.850Z,0.60
2023-03-25T17:27:26.970Z,0.70
2023-03-25T17:29:57.360Z,0.70
2023-03-25T17:32:25.698Z,0.70
2023-03-25T17:34:57.960Z,0.93
2023-03-25T17:37:26.692Z,1.13
2023-03-25T17:39:54.718Z,0.70
2023-03-25T17:42:24.687Z,0.90
2023-03-25T17:44:53.737Z,0.85
2023-03-25T17:47:22.115Z,1.17
2023-03-25T17:49:51.784Z,1.17
2023-03-25T17:52:20.422Z,1.10
2023-03-25T17:54:48.310Z,0.90
2023-03-25T17:57:20.376Z,1.20
2023-03-25T17:59:49.097Z,0.93
2023-03-25T18:02:17.774Z,1.40
2023-03-25T18:04:45.793Z,1.00
2023-03-25T18:07:13.863Z,1.30
2023-03-25T18:09:41.919Z,2.10
2023-03-25T18:12:11.131Z,1.38
2023-03-25T18:14:39.179Z,1.35
2023-03-25T18:17:07.315Z,1.58
2023-03-25T18:19:35.193Z,2.17
2023-03-25T18:22:13.855Z,3.08
2023-03-25T18:24:52.101Z,2.75
2023-03-25T18:27:33.538Z,2.38
2023-03-25T18:30:35.719Z,3.53
2023-03-25T18:33:03.577Z,2.45
2023-03-25T18:35:31.764Z,3.28
2023-03-25T18:37:59.643Z,5.45
2023-03-25T18:40:29.224Z,3.28
2023-03-25T18:42:57.051Z,4.68
2023-03-25T18:45:25.978Z,5.60
2023-03-25T18:47:54.142Z,7.80
2023-03-25T18:50:22.660Z,9.25
2023-03-25T18:52:50.913Z,10.15
2023-03-25T18:55:19.811Z,9.75
2023-03-25T18:57:48.082Z,12.27
2023-03-25T19:00:24.052Z,14.13
2023-03-25T19:02:55.367Z,14.40
2023-03-25T19:05:24.155Z,14.02
2023-03-25T19:07:53.873Z,14.52
2023-03-25T19:10:30.040Z,14.73
2023-03-25T19:12:58.336Z,14.38
2023-03-25T19:15:27.882Z,15.40
2023-03-25T19:18:02.129Z,18.83
2023-03-25T19:20:34.373Z,21.25
2023-03-25T19:23:02.737Z,22.02
2023-03-25T19:25:31.258Z,17.98
2023-03-25T19:27:59.312Z,14.38
2023-03-25T19:30:27.563Z,13.50
2023-03-25T19:32:59.457Z,14.13
2023-03-25T19:35:27.692Z,14.57
2023-03-25T19:37:56.408Z,13.50
2023-03-25T19:40:26.292Z,32.58
2023-03-25T19:42:56.031Z,18.42
2023-03-25T19:45:24.910Z,13.75
2023-03-25T19:47:53.687Z,12.63
2023-03-25T19:50:23.639Z,11.52
2023-03-25T19:52:53.210Z,12.63
2023-03-25T19:55:22.218Z,10.68
2023-03-25T19:57:50.595Z,21.02
2023-03-25T20:00:24.870Z,18.00
2023-03-25T20:02:54.900Z,10.68
2023-03-25T20:05:25.671Z,9.88
2023-03-25T20:07:54.950Z,10.80
2023-03-25T20:10:24.465Z,9.55
2023-03-25T20:12:52.425Z,10.10
2023-03-25T20:15:20.984Z,9.45
2023-03-25T20:17:49.908Z,10.23
2023-03-25T20:20:22.905Z,9.80
2023-03-25T20:22:51.237Z,9.65
2023-03-25T20:25:19.536Z,9.77
2023-03-25T20:27:48.173Z,9.95
2023-03-25T20:30:17.813Z,10.38
2023-03-25T20:32:48.063Z,17.17
2023-03-25T20:35:16.966Z,11.75
2023-03-25T20:37:45.744Z,10.57
2023-03-25T20:40:15.619Z,11.25
2023-03-25T20:42:44.512Z,10.27
2023-03-25T20:45:13.999Z,10.15
2023-03-25T20:47:42.451Z,10.73
2023-03-25T20:50:18.745Z,10.27
2023-03-25T20:52:53.193Z,10.40
2023-03-25T20:55:24.819Z,9.70
2023-03-25T20:58:13.210Z,9.73
2023-03-25T21:00:42.975Z,10.57
2023-03-25T21:03:13.256Z,10.20
2023-03-25T21:05:45.135Z,10.57
2023-03-25T21:08:17.907Z,9.60
2023-03-25T21:10:51.189Z,9.73
2023-03-25T21:15:56.199Z,9.82
2023-03-25T21:18:28.793Z,21.40
2023-03-25T21:20:58.066Z,10.52
2023-03-25T21:23:28.749Z,9.85
2023-03-25T21:25:57.639Z,9.50
2023-03-25T21:28:25.743Z,9.88
2023-03-25T21:31:07.843Z,9.77
2023-03-25T21:33:39.022Z,10.68
2023-03-25T21:36:11.442Z,10.73
2023-03-25T21:38:41.157Z,9.33
2023-03-25T21:41:09.729Z,9.68
2023-03-25T21:43:40.761Z,10.68
2023-03-25T21:46:11.732Z,9.15
2023-03-25T21:48:45.130Z,10.30
2023-03-25T21:51:14.751Z,9.05
2023-03-25T21:53:46.500Z,9.45
2023-03-25T21:56:20.157Z,9.32
2023-03-25T21:58:48.843Z,10.13
2023-03-25T22:01:19.834Z,8.80
2023-03-25T22:03:47.965Z,9.70
2023-03-25T22:06:17.888Z,8.90
2023-03-25T22:08:46.229Z,9.32
2023-03-25T22:11:14.048Z,9.82
2023-03-25T22:13:43.393Z,11.60
2023-03-25T22:16:12.008Z,13.57
2023-03-25T22:18:40.876Z,14.70
2023-03-25T22:21:10.599Z,9.07
2023-03-25T22:23:40.205Z,9.65
2023-03-25T22:26:09.472Z,9.52
2023-03-25T22:28:37.980Z,13.35
2023-03-25T22:31:12.822Z,10.00
2023-03-25T22:33:40.919Z,9.55
2023-03-25T22:36:13.754Z,10.35
2023-03-25T22:38:45.400Z,9.63
2023-03-25T22:41:14.768Z,9.63
2023-03-25T22:43:43.306Z,9.65
2023-03-25T22:46:12.827Z,9.90
2023-03-25T22:48:41.113Z,9.70
2023-03-25T22:51:10.728Z,9.75
2023-03-25T22:53:38.929Z,10.02
2023-03-25T22:56:07.224Z,9.95
2023-03-25T22:58:35.649Z,10.40
2023-03-25T23:01:06.018Z,9.85
2023-03-25T23:03:34.638Z,10.00
2023-03-25T23:06:08.009Z,9.85
2023-03-25T23:08:38.904Z,8.52
2023-03-25T23:11:11.793Z,9.10
2023-03-25T23:13:41.518Z,9.35
2023-03-25T23:16:18.867Z,9.00
2023-03-25T23:18:52.046Z,9.63
2023-03-25T23:21:21.620Z,8.90
2023-03-25T23:23:53.375Z,9.55
2023-03-25T23:26:28.810Z,21.38
2023-03-25T23:29:11.269Z,31.08
2023-03-25T23:31:42.229Z,10.70
2023-03-25T23:34:21.514Z,9.52
2023-03-25T23:36:51.030Z,15.65
2023-03-25T23:39:23.226Z,16.80
2023-03-25T23:41:52.901Z,9.53
2023-03-25T23:44:22.468Z,9.00
2023-03-25T23:47:02.527Z,9.07
2023-03-25T23:49:49.337Z,8.85
2023-03-25T23:52:24.060Z,9.30
2023-03-25T23:54:52.691Z,8.57
2023-03-25T23:57:20.861Z,9.07
2023-03-25T23:59:48.868Z,9.52
